Hartford, Connecticut
Traffic Map
Current Weather Conditions
Hartford, Connecticut
Scattered Clouds
Scattered Clouds
74°
Feels Like: 74°
Wind Chill: 74° Ceiling: Unl
Heat Index: 74° Visibility: 10mi
Dew Point: 62° Wind: 12mph
Humidity: 66% Direction: 350° (N)
Pressure: 29.84in Gusts: 0mph
Raw Report DataKHFD 241353Z 35010KT 10SM FEW024 SCT060 23/17 A2984 RMK AO2 SLP106 T02330167
Traffic Incident Summary
Active as of:
Severity:
Category:
InformationThere was an issue retrieving the traffic information for this location. Please try a different location or try again shortly.
Advertisements
Track Severe Weather on mobile